createdAt,value
2023-03-14T00:01:27.819Z,94532.63
2023-03-14T00:03:54.557Z,94494.66
2023-03-14T00:06:24.416Z,94490.63
2023-03-14T00:08:52.685Z,94508.00
2023-03-14T00:11:21.258Z,94514.22
2023-03-14T00:13:52.120Z,94478.50
2023-03-14T00:16:19.803Z,94479.97
2023-03-14T00:18:46.486Z,94423.81
2023-03-14T00:21:14.382Z,94523.84
2023-03-14T00:23:43.046Z,94478.59
2023-03-14T00:26:12.808Z,94505.78
2023-03-14T00:28:40.333Z,94506.44
2023-03-14T00:31:09.330Z,94499.56
2023-03-14T00:33:36.325Z,94489.09
2023-03-14T00:36:10.369Z,94515.41
2023-03-14T00:38:38.885Z,94527.28
2023-03-14T00:41:10.570Z,94526.88
2023-03-14T00:43:40.220Z,94527.38
2023-03-14T00:46:07.359Z,94496.81
2023-03-14T00:48:34.615Z,94538.41
2023-03-14T00:51:01.928Z,94507.69
2023-03-14T00:53:28.626Z,94513.06
2023-03-14T00:55:55.306Z,94494.03
2023-03-14T00:58:24.188Z,94523.81
2023-03-14T01:00:50.874Z,94528.72
2023-03-14T01:03:17.913Z,94531.25
2023-03-14T01:05:44.597Z,94499.06
2023-03-14T01:08:12.860Z,94529.38
2023-03-14T01:10:41.248Z,94532.09
2023-03-14T01:13:08.906Z,94559.16
2023-03-14T01:15:37.903Z,94564.34
2023-03-14T01:18:05.119Z,94585.50
2023-03-14T01:20:32.030Z,94558.75
2023-03-14T01:22:58.770Z,94577.31
2023-03-14T01:25:25.760Z,94547.94
2023-03-14T01:27:52.514Z,94539.78
2023-03-14T01:30:19.201Z,94540.97
2023-03-14T01:32:45.954Z,94544.66
2023-03-14T01:35:12.689Z,94578.25
2023-03-14T01:37:39.475Z,94550.66
2023-03-14T01:40:12.247Z,94558.59
2023-03-14T01:42:39.492Z,94540.00
2023-03-14T01:45:06.743Z,94522.53
2023-03-14T01:47:33.697Z,94492.78
2023-03-14T01:50:05.021Z,94533.47
2023-03-14T01:52:37.409Z,94530.03
2023-03-14T01:55:07.643Z,94515.34
2023-03-14T01:57:40.518Z,94474.66
2023-03-14T02:00:14.575Z,94502.53
2023-03-14T02:02:48.077Z,94487.88
2023-03-14T02:05:21.014Z,94496.16
2023-03-14T02:07:58.753Z,94481.00
2023-03-14T02:10:35.148Z,94503.25
2023-03-14T02:13:04.874Z,94509.91
2023-03-14T02:15:54.572Z,94507.41
2023-03-14T02:18:42.876Z,94513.16
2023-03-14T02:22:10.312Z,94517.31
2023-03-14T02:24:56.835Z,94521.41
2023-03-14T02:27:23.566Z,94501.53
2023-03-14T02:30:03.918Z,94510.34
2023-03-14T02:32:33.558Z,94504.28
2023-03-14T02:35:04.320Z,94503.53
2023-03-14T02:37:40.304Z,94494.41
2023-03-14T02:40:07.770Z,94478.88
2023-03-14T02:42:35.498Z,94503.88
2023-03-14T02:45:09.537Z,94509.84
2023-03-14T02:47:44.582Z,94508.25
2023-03-14T02:50:16.806Z,94494.94
2023-03-14T02:52:43.503Z,94460.00
2023-03-14T02:55:10.584Z,94469.16
2023-03-14T02:57:40.124Z,94497.81
2023-03-14T03:00:07.852Z,94413.72
2023-03-14T03:02:36.563Z,94496.78
2023-03-14T03:05:03.328Z,94471.41
2023-03-14T03:07:29.955Z,94465.00
2023-03-14T03:09:57.685Z,94450.97
2023-03-14T03:12:24.524Z,94461.66
2023-03-14T03:14:51.161Z,94451.03
2023-03-14T03:17:18.182Z,94477.53
2023-03-14T03:19:44.999Z,94473.75
2023-03-14T03:22:11.877Z,94481.47
2023-03-14T03:24:41.091Z,94479.00
2023-03-14T03:27:07.731Z,94472.72
2023-03-14T03:29:34.443Z,94438.94
2023-03-14T03:32:01.350Z,94421.44
2023-03-14T03:34:28.850Z,94449.84
2023-03-14T03:36:59.705Z,94445.34
2023-03-14T03:39:29.828Z,94454.22
2023-03-14T03:41:57.306Z,94375.53
2023-03-14T03:44:24.049Z,94491.66
2023-03-14T03:46:51.805Z,94461.34
2023-03-14T03:49:18.839Z,94468.47
2023-03-14T03:51:45.531Z,94439.91
2023-03-14T03:54:12.182Z,94439.75
2023-03-14T03:56:39.170Z,94437.53
2023-03-14T03:59:06.648Z,94381.06
2023-03-14T04:01:33.304Z,94450.03
2023-03-14T04:04:00.424Z,94401.44
2023-03-14T04:06:27.945Z,94448.16
2023-03-14T04:08:57.985Z,94433.75
2023-03-14T04:11:34.326Z,94390.75
2023-03-14T04:14:33.388Z,94416.78
2023-03-14T04:17:17.372Z,94451.06
2023-03-14T04:19:44.313Z,94406.50
2023-03-14T04:22:11.517Z,94409.59
2023-03-14T04:24:46.649Z,94355.44
2023-03-14T04:27:15.536Z,94385.25
2023-03-14T04:29:43.911Z,94414.47
2023-03-14T04:32:12.225Z,94369.34
2023-03-14T04:34:39.825Z,94320.88
2023-03-14T04:37:06.886Z,94335.31
2023-03-14T04:39:38.564Z,94323.41
2023-03-14T04:42:16.983Z,94354.56
2023-03-14T04:44:44.360Z,94362.06
2023-03-14T04:47:12.219Z,94371.63
2023-03-14T04:49:40.428Z,94216.91
2023-03-14T04:52:09.144Z,94345.06
2023-03-14T04:54:37.248Z,94373.59
2023-03-14T04:57:04.967Z,94327.44
2023-03-14T04:59:36.030Z,94391.41
2023-03-14T05:02:15.632Z,94360.28
2023-03-14T05:04:54.824Z,94336.81
2023-03-14T05:07:40.283Z,94375.16
2023-03-14T05:10:33.030Z,94371.69
2023-03-14T05:13:17.445Z,94366.78
2023-03-14T05:16:12.417Z,94397.44
2023-03-14T05:19:08.572Z,94388.97
2023-03-14T05:21:46.464Z,94389.53
2023-03-14T05:24:39.347Z,94400.75
2023-03-14T05:27:26.307Z,94373.72
2023-03-14T05:30:11.866Z,94389.31
2023-03-14T05:33:03.310Z,94373.38
2023-03-14T05:35:55.261Z,94382.13
2023-03-14T05:38:42.155Z,94359.19
2023-03-14T05:41:25.658Z,94371.34
2023-03-14T05:44:25.753Z,94342.84
2023-03-14T05:47:12.351Z,94362.56
2023-03-14T05:50:05.577Z,94269.69
2023-03-14T05:52:47.210Z,94289.25
2023-03-14T05:55:34.064Z,94369.09
2023-03-14T05:58:17.310Z,94350.09
2023-03-14T06:01:04.924Z,94361.53
2023-03-14T06:03:45.580Z,94332.06
2023-03-14T06:06:12.323Z,94327.16
2023-03-14T06:08:39.094Z,94327.97
2023-03-14T06:11:06.973Z,94325.28
2023-03-14T06:13:33.570Z,94327.56
2023-03-14T06:16:00.186Z,94357.03
2023-03-14T06:18:26.891Z,94332.34
2023-03-14T06:20:56.385Z,94345.25
2023-03-14T06:23:26.332Z,94370.56
2023-03-14T06:25:53.587Z,94360.53
2023-03-14T06:28:25.903Z,94350.97
2023-03-14T06:30:53.337Z,94305.16
2023-03-14T06:33:20.085Z,94337.66
2023-03-14T06:35:46.878Z,94335.44
2023-03-14T06:38:13.468Z,94364.66
2023-03-14T06:40:40.743Z,94288.13
2023-03-14T06:43:12.101Z,94332.88
2023-03-14T06:45:41.248Z,94355.56
2023-03-14T06:48:08.168Z,94355.56
2023-03-14T06:50:44.563Z,94373.47
2023-03-14T06:53:11.228Z,94379.91
2023-03-14T06:55:41.803Z,94341.31
2023-03-14T06:58:09.126Z,94352.00
2023-03-14T07:00:41.715Z,94344.84
2023-03-14T07:03:08.932Z,94389.47
2023-03-14T07:05:41.497Z,94350.91
2023-03-14T07:08:11.276Z,94378.56
2023-03-14T07:10:38.125Z,94376.59
2023-03-14T07:13:09.948Z,94373.59
2023-03-14T07:15:46.422Z,94365.50
2023-03-14T07:18:13.898Z,94373.00
2023-03-14T07:20:40.977Z,94399.56
2023-03-14T07:23:08.300Z,94384.78
2023-03-14T07:25:43.620Z,94361.22
2023-03-14T07:28:10.261Z,94381.78
2023-03-14T07:30:39.601Z,94369.28
2023-03-14T07:33:12.568Z,94389.66
2023-03-14T07:35:39.234Z,94371.56
2023-03-14T07:38:06.170Z,94405.38
2023-03-14T07:40:37.765Z,94383.94
2023-03-14T07:43:05.984Z,94393.81
2023-03-14T07:45:58.643Z,94367.03
2023-03-14T07:48:27.772Z,94364.84
2023-03-14T07:50:56.044Z,94357.50
2023-03-14T07:53:24.436Z,94349.97
2023-03-14T07:55:53.180Z,94402.91
2023-03-14T07:58:20.236Z,94380.13
2023-03-14T08:00:46.821Z,94405.09
2023-03-14T08:03:13.444Z,94376.31
2023-03-14T08:05:40.917Z,94397.63
2023-03-14T08:08:07.574Z,94362.25
2023-03-14T08:10:34.174Z,94402.03
2023-03-14T08:13:02.220Z,94401.75
2023-03-14T08:15:31.347Z,94410.06
2023-03-14T08:17:57.926Z,94389.56
2023-03-14T08:20:27.338Z,94421.47
2023-03-14T08:22:57.317Z,94413.47
2023-03-14T08:25:23.986Z,94426.78
2023-03-14T08:27:50.853Z,94404.97
2023-03-14T08:30:19.786Z,94417.53
2023-03-14T08:32:46.599Z,94417.97
2023-03-14T08:35:13.603Z,94383.94
2023-03-14T08:37:40.779Z,94400.25
2023-03-14T08:40:09.606Z,94407.78
2023-03-14T08:42:37.204Z,94411.53
2023-03-14T08:45:05.120Z,94415.31
2023-03-14T08:47:31.787Z,94400.72
2023-03-14T08:49:58.459Z,94377.16
2023-03-14T08:52:25.236Z,94364.31
2023-03-14T08:54:51.828Z,94369.75
2023-03-14T08:57:18.428Z,94408.03
2023-03-14T08:59:45.153Z,94380.41
2023-03-14T09:02:13.567Z,94388.31
2023-03-14T09:04:40.464Z,94289.09
2023-03-14T09:07:07.091Z,94388.38
2023-03-14T09:09:33.785Z,94388.38
2023-03-14T09:12:00.376Z,94399.38
2023-03-14T09:14:27.017Z,94401.31
2023-03-14T09:16:53.737Z,94350.53
2023-03-14T09:19:22.061Z,94374.47
2023-03-14T09:21:48.733Z,94392.97
2023-03-14T09:24:15.760Z,94391.22
2023-03-14T09:26:42.459Z,94415.47
2023-03-14T09:29:09.140Z,94374.59
2023-03-14T09:31:36.455Z,94410.59
2023-03-14T09:34:03.176Z,94408.06
2023-03-14T09:36:30.208Z,94421.97
2023-03-14T09:38:56.979Z,94399.72
2023-03-14T09:41:30.846Z,94381.53
2023-03-14T09:44:13.021Z,94395.25
2023-03-14T09:46:41.934Z,94369.47
2023-03-14T09:49:36.409Z,94394.13
2023-03-14T09:52:11.380Z,94415.00
2023-03-14T09:54:58.226Z,94338.59
2023-03-14T09:57:26.331Z,94400.25
2023-03-14T09:59:57.090Z,94378.03
2023-03-14T10:02:26.391Z,94409.94
2023-03-14T10:04:55.300Z,94381.50
2023-03-14T10:07:33.698Z,94409.19
2023-03-14T10:10:00.659Z,94372.56
2023-03-14T10:12:36.116Z,94396.38
2023-03-14T10:15:07.473Z,94403.97
2023-03-14T10:17:48.213Z,94414.81
2023-03-14T10:20:28.511Z,94404.63
2023-03-14T10:22:56.136Z,94383.00
2023-03-14T10:25:32.175Z,94396.66
2023-03-14T10:27:59.490Z,94400.72
2023-03-14T10:30:44.758Z,94410.53
2023-03-14T10:33:23.292Z,94387.44
2023-03-14T10:36:01.333Z,94417.75
2023-03-14T10:38:30.930Z,94417.41
2023-03-14T10:40:59.552Z,94393.25
2023-03-14T10:43:37.353Z,94391.78
2023-03-14T10:46:15.498Z,94385.44
2023-03-14T10:49:07.477Z,94414.56
2023-03-14T10:51:34.662Z,94411.53
2023-03-14T10:54:15.642Z,94414.84
2023-03-14T10:56:42.342Z,94400.00
2023-03-14T10:59:15.416Z,94424.28
2023-03-14T11:02:20.585Z,94436.44
2023-03-14T11:05:03.309Z,94430.31
2023-03-14T11:07:41.951Z,94436.72
2023-03-14T11:10:35.707Z,94426.44
2023-03-14T11:13:26.954Z,94431.97
2023-03-14T11:16:07.548Z,94420.00
2023-03-14T11:18:37.102Z,94426.72
2023-03-14T11:21:12.450Z,94394.25
2023-03-14T11:23:51.613Z,94426.84
2023-03-14T11:26:31.698Z,94387.81
2023-03-14T11:29:04.666Z,94385.50
2023-03-14T11:31:36.127Z,94414.94
2023-03-14T11:34:28.056Z,94407.66
2023-03-14T11:37:14.352Z,94386.84
2023-03-14T11:39:45.960Z,94393.88
2023-03-14T11:42:16.750Z,94386.66
2023-03-14T11:44:49.195Z,94343.91
2023-03-14T11:47:19.423Z,94368.50
2023-03-14T11:49:54.873Z,94342.09
2023-03-14T11:52:25.036Z,94357.53
2023-03-14T11:55:01.139Z,94338.38
2023-03-14T11:57:27.959Z,94301.16
2023-03-14T12:00:10.803Z,94339.41
2023-03-14T12:03:09.477Z,94333.72
2023-03-14T12:06:03.649Z,94344.75
2023-03-14T12:08:53.568Z,94322.56
2023-03-14T12:11:22.404Z,94352.84
2023-03-14T12:13:51.777Z,94337.94
2023-03-14T12:16:24.534Z,94358.28
2023-03-14T12:18:55.151Z,94345.69
2023-03-14T12:21:23.060Z,94338.59
2023-03-14T12:23:53.631Z,94337.81
2023-03-14T12:26:26.214Z,94359.03
2023-03-14T12:28:58.817Z,94345.38
2023-03-14T12:31:31.670Z,94345.94
2023-03-14T12:34:25.512Z,94339.75
2023-03-14T12:36:57.850Z,94265.09
2023-03-14T12:39:44.877Z,94349.28
2023-03-14T12:42:24.006Z,94337.94
2023-03-14T12:44:54.053Z,94317.59
2023-03-14T12:47:20.688Z,94343.84
2023-03-14T12:49:49.564Z,94340.50
2023-03-14T12:52:21.069Z,94322.78
2023-03-14T12:55:09.699Z,94334.22
2023-03-14T12:57:58.754Z,94327.41
2023-03-14T13:00:33.185Z,94320.22
2023-03-14T13:03:23.401Z,94335.75
2023-03-14T13:05:58.981Z,94332.97
2023-03-14T13:08:46.310Z,94265.13
2023-03-14T13:11:20.007Z,94295.69
2023-03-14T13:13:50.497Z,94341.00
2023-03-14T13:16:22.506Z,94331.94
2023-03-14T13:18:52.667Z,94332.28
2023-03-14T13:21:21.877Z,94332.66
2023-03-14T13:24:03.682Z,94317.88
2023-03-14T13:26:47.000Z,94334.84
2023-03-14T13:29:24.541Z,94335.88
2023-03-14T13:31:53.798Z,94325.91
2023-03-14T13:34:21.219Z,94321.38
2023-03-14T13:36:51.418Z,94303.59
2023-03-14T13:39:21.606Z,94282.06
2023-03-14T13:41:49.469Z,94290.03
2023-03-14T13:44:25.249Z,94301.63
2023-03-14T13:46:51.970Z,94306.00
2023-03-14T13:49:27.283Z,94276.75
2023-03-14T13:51:53.852Z,94277.56
2023-03-14T13:54:22.911Z,94269.22
2023-03-14T13:56:59.737Z,94316.03
2023-03-14T13:59:27.444Z,94329.63
2023-03-14T14:01:55.437Z,94335.59
2023-03-14T14:04:27.436Z,94353.63
2023-03-14T14:06:58.472Z,94291.72
2023-03-14T14:09:53.017Z,94357.09
2023-03-14T14:12:41.402Z,94304.47
2023-03-14T14:15:20.749Z,94340.84
2023-03-14T14:17:55.519Z,94298.31
2023-03-14T14:20:22.329Z,94374.69
2023-03-14T14:22:50.489Z,94357.38
2023-03-14T14:25:17.691Z,94363.06
2023-03-14T14:27:49.037Z,94395.88
2023-03-14T14:30:18.599Z,94406.66
2023-03-14T14:32:49.753Z,94399.38
2023-03-14T14:35:54.577Z,94402.81
2023-03-14T14:38:24.415Z,94399.00
2023-03-14T14:40:55.825Z,94393.97
2023-03-14T14:43:25.563Z,94404.66
2023-03-14T14:45:54.859Z,94346.63
2023-03-14T14:48:24.666Z,94393.03
2023-03-14T14:50:58.484Z,94394.84
2023-03-14T14:53:32.599Z,94389.22
2023-03-14T14:56:04.573Z,94392.16
2023-03-14T14:58:41.773Z,94363.28
2023-03-14T15:01:33.314Z,94389.28
2023-03-14T15:03:59.958Z,94397.03
2023-03-14T15:06:30.306Z,94406.41
2023-03-14T15:08:56.952Z,94402.50
2023-03-14T15:11:26.083Z,94411.19
2023-03-14T15:13:55.801Z,94405.34
2023-03-14T15:16:29.990Z,94422.59
2023-03-14T15:18:59.099Z,94386.78
2023-03-14T15:21:27.492Z,94464.78
2023-03-14T15:23:54.425Z,94482.78
2023-03-14T15:26:27.425Z,94503.63
2023-03-14T15:28:54.822Z,94507.00
2023-03-14T15:31:25.085Z,94516.41
2023-03-14T15:33:51.761Z,94508.66
2023-03-14T15:36:34.528Z,94541.56
2023-03-14T15:39:01.460Z,94506.50
2023-03-14T15:41:28.748Z,94556.41
2023-03-14T15:43:55.895Z,94563.66
2023-03-14T15:46:23.305Z,94599.53
2023-03-14T15:48:51.272Z,94592.97
2023-03-14T15:51:18.892Z,94597.78
2023-03-14T15:53:45.676Z,94571.28
2023-03-14T15:56:14.978Z,94629.47
2023-03-14T15:58:42.224Z,94614.66
2023-03-14T16:01:10.418Z,94652.97
2023-03-14T16:03:37.212Z,94637.50
2023-03-14T16:06:04.976Z,94663.22
2023-03-14T16:08:31.742Z,94660.69
2023-03-14T16:11:00.271Z,94640.03
2023-03-14T16:13:28.494Z,94645.91
2023-03-14T16:16:03.945Z,94653.00
2023-03-14T16:18:33.070Z,94693.75
2023-03-14T16:21:08.740Z,94692.97
2023-03-14T16:23:36.418Z,94667.63
2023-03-14T16:26:26.329Z,94695.09
2023-03-14T16:28:53.610Z,94662.00
2023-03-14T16:31:25.089Z,94696.97
2023-03-14T16:33:52.138Z,94709.94
2023-03-14T16:36:19.159Z,94715.75
2023-03-14T16:38:46.499Z,94730.38
2023-03-14T16:41:18.649Z,94741.75
2023-03-14T16:43:45.924Z,94747.47
2023-03-14T16:46:17.032Z,94756.34
2023-03-14T16:48:45.000Z,94751.63
2023-03-14T16:51:12.022Z,94770.38
2023-03-14T16:53:38.614Z,94780.22
2023-03-14T16:56:05.575Z,94799.34
2023-03-14T16:58:32.217Z,94799.00
2023-03-14T17:00:59.062Z,94783.28
2023-03-14T17:03:27.841Z,94826.88
2023-03-14T17:05:54.673Z,94824.03
2023-03-14T17:08:21.806Z,94830.03
2023-03-14T17:10:48.408Z,94839.31
2023-03-14T17:13:15.090Z,94797.38
2023-03-14T17:15:47.011Z,94829.56
2023-03-14T17:18:13.920Z,94843.88
2023-03-14T17:20:41.140Z,94853.97
2023-03-14T17:23:08.348Z,94857.25
2023-03-14T17:25:36.585Z,94882.22
2023-03-14T17:28:03.634Z,94853.25
2023-03-14T17:30:30.334Z,94873.66
2023-03-14T17:32:58.574Z,94880.19
2023-03-14T17:35:25.427Z,94908.13
2023-03-14T17:37:52.050Z,94853.31
2023-03-14T17:40:18.736Z,94926.88
2023-03-14T17:42:45.370Z,94925.84
2023-03-14T17:45:12.067Z,94914.28
2023-03-14T17:47:38.798Z,94919.38
2023-03-14T17:50:06.117Z,94927.28
2023-03-14T17:52:33.205Z,94934.50
2023-03-14T17:54:59.776Z,94961.66
2023-03-14T17:57:26.956Z,94937.38
2023-03-14T17:59:53.761Z,94933.03
2023-03-14T18:02:21.704Z,94965.31
2023-03-14T18:04:49.287Z,95006.28
2023-03-14T18:07:16.096Z,94943.34
2023-03-14T18:09:43.217Z,95025.50
2023-03-14T18:12:10.370Z,95026.56
2023-03-14T18:14:37.453Z,95046.88
2023-03-14T18:17:07.001Z,95038.28
2023-03-14T18:19:33.663Z,94980.09
2023-03-14T18:22:00.375Z,95028.09
2023-03-14T18:24:28.807Z,95026.56
2023-03-14T18:26:55.806Z,95010.00
2023-03-14T18:29:22.513Z,95053.00
2023-03-14T18:31:49.252Z,95030.13
2023-03-14T18:34:16.056Z,95080.78
2023-03-14T18:36:42.716Z,95066.66
2023-03-14T18:39:10.301Z,95061.59
2023-03-14T18:41:37.231Z,95065.16
2023-03-14T18:44:04.231Z,95115.16
2023-03-14T18:46:31.021Z,95124.69
2023-03-14T18:49:03.595Z,95143.19
2023-03-14T18:51:32.850Z,95151.63
2023-03-14T18:54:09.487Z,95129.31
2023-03-14T18:56:38.623Z,95186.59
2023-03-14T18:59:05.825Z,95168.88
2023-03-14T19:01:34.150Z,95170.97
2023-03-14T19:04:02.625Z,95171.13
2023-03-14T19:06:31.988Z,95208.97
2023-03-14T19:08:58.920Z,95187.25
2023-03-14T19:11:26.750Z,95203.66
2023-03-14T19:13:55.025Z,95226.44
2023-03-14T19:16:25.032Z,95234.34
2023-03-14T19:18:55.554Z,95198.53
2023-03-14T19:21:30.889Z,95241.69
2023-03-14T19:23:57.547Z,95230.91
2023-03-14T19:26:24.604Z,95253.88
2023-03-14T19:28:52.999Z,95250.06
2023-03-14T19:31:20.010Z,95246.97
2023-03-14T19:33:47.297Z,95241.22
2023-03-14T19:36:22.433Z,95262.34
2023-03-14T19:38:49.786Z,95241.72
2023-03-14T19:41:16.840Z,95265.41
2023-03-14T19:43:43.443Z,95243.09
2023-03-14T19:46:10.380Z,95260.97
2023-03-14T19:48:37.642Z,95244.22
2023-03-14T19:51:04.625Z,95248.19
2023-03-14T19:53:31.496Z,95286.63
2023-03-14T19:55:58.197Z,95257.19
2023-03-14T19:58:25.293Z,95283.78
2023-03-14T20:00:52.439Z,95258.94
2023-03-14T20:03:19.580Z,95293.75
2023-03-14T20:05:46.408Z,95290.44
2023-03-14T20:08:13.377Z,95280.72
2023-03-14T20:10:40.114Z,95299.34
2023-03-14T20:13:19.129Z,95295.41
2023-03-14T20:15:47.806Z,95303.28
2023-03-14T20:18:14.437Z,95284.16
2023-03-14T20:20:44.454Z,95315.94
2023-03-14T20:23:11.312Z,95284.19
2023-03-14T20:25:38.127Z,95289.34
2023-03-14T20:28:05.323Z,95332.75
2023-03-14T20:30:32.695Z,95344.22
2023-03-14T20:32:59.497Z,95316.56
2023-03-14T20:35:27.066Z,95343.00
2023-03-14T20:37:56.186Z,95357.41
2023-03-14T20:40:24.337Z,95356.25
2023-03-14T20:42:51.480Z,95308.50
2023-03-14T20:45:18.526Z,95360.78
2023-03-14T20:47:45.212Z,95350.91
2023-03-14T20:50:13.067Z,95353.41
2023-03-14T20:52:40.179Z,95346.19
2023-03-14T20:55:07.136Z,95325.31
2023-03-14T20:57:33.906Z,95327.75
2023-03-14T21:00:00.646Z,95342.69
2023-03-14T21:02:27.536Z,95327.16
2023-03-14T21:04:57.683Z,95360.69
2023-03-14T21:07:24.410Z,95364.72
2023-03-14T21:09:51.123Z,95342.16
2023-03-14T21:12:17.709Z,95366.72
2023-03-14T21:14:44.596Z,95349.22
2023-03-14T21:17:11.264Z,95328.97
2023-03-14T21:19:37.890Z,95330.13
2023-03-14T21:22:05.787Z,95350.75
2023-03-14T21:24:34.305Z,95352.63
2023-03-14T21:27:01.127Z,95326.88
2023-03-14T21:29:27.798Z,95358.63
2023-03-14T21:31:54.512Z,95384.78
2023-03-14T21:34:25.067Z,95351.81
2023-03-14T21:36:52.168Z,95351.97
2023-03-14T21:39:18.946Z,95311.66
2023-03-14T21:41:47.014Z,95349.09
2023-03-14T21:44:16.190Z,95315.97
2023-03-14T21:46:45.982Z,95311.69
2023-03-14T21:49:14.018Z,95324.59
2023-03-14T21:51:41.475Z,95379.75
2023-03-14T21:54:10.309Z,95393.22
2023-03-14T21:56:37.873Z,95388.06
2023-03-14T21:59:04.945Z,95382.63
2023-03-14T22:01:32.521Z,95370.97
2023-03-14T22:04:00.179Z,95365.09
2023-03-14T22:06:28.176Z,95411.84
2023-03-14T22:08:57.653Z,95429.22
2023-03-14T22:11:24.909Z,95436.91
2023-03-14T22:13:51.689Z,95428.09
2023-03-14T22:16:18.411Z,95412.03
2023-03-14T22:18:45.609Z,95448.19
2023-03-14T22:21:12.416Z,95422.09
2023-03-14T22:23:39.257Z,95432.47
2023-03-14T22:26:05.903Z,95417.13
2023-03-14T22:28:32.641Z,95431.16
2023-03-14T22:31:03.539Z,95454.88
2023-03-14T22:33:31.327Z,95454.13
2023-03-14T22:35:58.189Z,95472.75
2023-03-14T22:38:25.403Z,95457.84
2023-03-14T22:40:52.040Z,95477.94
2023-03-14T22:43:18.792Z,95446.03
2023-03-14T22:45:45.693Z,95452.91
2023-03-14T22:48:12.339Z,95434.78
2023-03-14T22:50:40.373Z,95479.41
2023-03-14T22:53:07.090Z,95433.00
2023-03-14T22:55:33.822Z,95470.97
2023-03-14T22:58:00.602Z,95480.78
2023-03-14T23:00:27.934Z,95461.22
2023-03-14T23:02:54.776Z,95465.28
2023-03-14T23:05:21.812Z,95495.63
2023-03-14T23:07:48.466Z,95468.84
2023-03-14T23:10:15.096Z,95470.75
2023-03-14T23:12:41.812Z,95505.53
2023-03-14T23:15:09.003Z,95472.16
2023-03-14T23:17:35.695Z,95457.00
2023-03-14T23:20:02.389Z,95439.50
2023-03-14T23:22:32.804Z,95502.88
2023-03-14T23:25:01.289Z,95481.44
2023-03-14T23:27:28.117Z,95467.03
2023-03-14T23:29:54.780Z,95438.84
2023-03-14T23:32:21.610Z,95490.66
2023-03-14T23:34:48.378Z,95489.22
2023-03-14T23:37:15.029Z,95518.31
2023-03-14T23:39:44.853Z,95454.25
2023-03-14T23:42:12.197Z,95541.44
2023-03-14T23:44:39.032Z,95556.91
2023-03-14T23:47:06.016Z,95531.47
2023-03-14T23:49:32.761Z,95565.69
2023-03-14T23:51:59.501Z,95555.13
2023-03-14T23:54:26.224Z,95523.44
2023-03-14T23:56:52.911Z,95531.25
2023-03-14T23:59:19.534Z,95527.97
